createdAt,value
2023-04-30T00:01:19.249Z,18.38
2023-04-30T00:03:46.348Z,19.50
2023-04-30T00:06:13.391Z,16.75
2023-04-30T00:08:40.763Z,17.30
2023-04-30T00:11:07.813Z,17.25
2023-04-30T00:13:34.806Z,17.42
2023-04-30T00:16:01.812Z,17.65
2023-04-30T00:18:28.752Z,17.92
2023-04-30T00:20:56.747Z,17.40
2023-04-30T00:23:23.672Z,18.98
2023-04-30T00:25:50.709Z,17.90
2023-04-30T00:28:18.000Z,17.25
2023-04-30T00:30:46.963Z,17.85
2023-04-30T00:33:14.123Z,17.92
2023-04-30T00:35:41.892Z,17.33
2023-04-30T00:38:09.017Z,16.92
2023-04-30T00:40:36.512Z,16.48
2023-04-30T00:43:03.944Z,17.42
2023-04-30T00:45:30.976Z,16.38
2023-04-30T00:47:58.100Z,16.55
2023-04-30T00:50:25.512Z,15.25
2023-04-30T00:52:53.735Z,15.18
2023-04-30T00:55:23.433Z,15.27
2023-04-30T00:57:51.396Z,15.13
2023-04-30T01:00:19.134Z,14.48
2023-04-30T01:02:46.180Z,15.23
2023-04-30T01:05:14.121Z,15.13
2023-04-30T01:07:46.384Z,14.02
2023-04-30T01:10:16.511Z,14.63
2023-04-30T01:12:50.077Z,13.77
2023-04-30T01:15:27.752Z,14.48
2023-04-30T01:18:01.633Z,15.48
2023-04-30T01:20:31.100Z,14.73
2023-04-30T01:23:26.946Z,13.50
2023-04-30T01:26:15.431Z,13.23
2023-04-30T01:28:44.780Z,12.77
2023-04-30T01:31:19.049Z,12.70
2023-04-30T01:33:46.251Z,13.27
2023-04-30T01:36:53.196Z,11.77
2023-04-30T01:39:45.012Z,12.18
2023-04-30T01:42:23.333Z,12.55
2023-04-30T01:45:27.923Z,12.23
2023-04-30T01:48:18.966Z,12.10
2023-04-30T01:51:09.977Z,12.00
2023-04-30T01:53:46.959Z,12.38
2023-04-30T01:56:31.537Z,12.23
2023-04-30T01:59:00.926Z,11.32
2023-04-30T02:01:30.919Z,12.25
2023-04-30T02:04:00.173Z,11.15
2023-04-30T02:06:28.873Z,11.68
2023-04-30T02:09:02.445Z,11.68
2023-04-30T02:11:29.980Z,11.20
2023-04-30T02:13:57.022Z,11.57
2023-04-30T02:16:24.549Z,11.38
2023-04-30T02:18:52.791Z,11.43
2023-04-30T02:21:20.208Z,10.98
2023-04-30T02:23:47.583Z,11.90
2023-04-30T02:26:14.619Z,11.77
2023-04-30T02:28:42.454Z,12.20
2023-04-30T02:31:13.521Z,12.15
2023-04-30T02:33:40.622Z,13.32
2023-04-30T02:36:07.648Z,12.65
2023-04-30T02:38:34.921Z,11.35
2023-04-30T02:41:02.418Z,11.85
2023-04-30T02:43:29.339Z,12.93
2023-04-30T02:45:57.445Z,12.88
2023-04-30T02:48:24.506Z,12.30
2023-04-30T02:50:51.432Z,12.57
2023-04-30T02:53:19.465Z,11.48
2023-04-30T02:55:47.902Z,12.07
2023-04-30T02:58:14.910Z,11.73
2023-04-30T03:00:42.082Z,12.05
2023-04-30T03:03:09.335Z,12.77
2023-04-30T03:05:36.498Z,12.90
2023-04-30T03:08:03.588Z,11.65
2023-04-30T03:10:30.568Z,12.68
2023-04-30T03:12:58.094Z,12.02
2023-04-30T03:15:25.265Z,13.50
2023-04-30T03:17:52.282Z,12.40
2023-04-30T03:20:19.329Z,12.52
2023-04-30T03:22:46.386Z,13.23
2023-04-30T03:25:13.303Z,12.90
2023-04-30T03:27:40.564Z,11.88
2023-04-30T03:30:08.050Z,11.65
2023-04-30T03:32:35.096Z,12.43
2023-04-30T03:35:02.049Z,12.57
2023-04-30T03:37:29.386Z,12.43
2023-04-30T03:39:56.513Z,13.13
2023-04-30T03:42:23.883Z,13.02
2023-04-30T03:44:51.678Z,13.05
2023-04-30T03:47:21.299Z,13.73
2023-04-30T03:49:56.310Z,13.18
2023-04-30T03:52:24.925Z,13.98
2023-04-30T03:54:53.039Z,13.38
2023-04-30T03:57:22.444Z,13.77
2023-04-30T03:59:50.779Z,15.35
2023-04-30T04:02:18.168Z,14.32
2023-04-30T04:04:45.725Z,14.15
2023-04-30T04:07:13.048Z,14.93
2023-04-30T04:09:41.164Z,14.52
2023-04-30T04:12:10.007Z,15.15
2023-04-30T04:14:37.029Z,16.17
2023-04-30T04:17:05.898Z,15.63
2023-04-30T04:19:33.498Z,15.65
2023-04-30T04:22:04.987Z,15.30
2023-04-30T04:24:34.181Z,17.15
2023-04-30T04:27:02.997Z,13.85
2023-04-30T04:29:30.398Z,13.93
2023-04-30T04:31:57.425Z,12.30
2023-04-30T04:34:24.415Z,12.10
2023-04-30T04:36:53.268Z,13.27
2023-04-30T04:39:21.668Z,13.00
2023-04-30T04:41:48.593Z,12.65
2023-04-30T04:44:15.659Z,13.13
2023-04-30T04:46:44.618Z,13.02
2023-04-30T04:49:12.719Z,13.02
2023-04-30T04:51:39.892Z,12.63
2023-04-30T04:54:07.465Z,12.77
2023-04-30T04:56:34.494Z,13.35
2023-04-30T04:59:04.540Z,12.85
2023-04-30T05:01:31.840Z,11.70
2023-04-30T05:03:59.128Z,13.00
2023-04-30T05:06:26.905Z,13.93
2023-04-30T05:08:54.171Z,12.98
2023-04-30T05:11:22.914Z,15.80
2023-04-30T05:13:52.675Z,15.80
2023-04-30T05:16:24.516Z,15.32
2023-04-30T05:18:57.465Z,16.20
2023-04-30T05:21:26.174Z,17.52
2023-04-30T05:23:54.243Z,16.70
2023-04-30T05:26:21.503Z,16.95
2023-04-30T05:28:49.077Z,16.45
2023-04-30T05:31:20.656Z,17.15
2023-04-30T05:33:48.154Z,17.63
2023-04-30T05:36:15.519Z,17.17
2023-04-30T05:38:42.636Z,17.88
2023-04-30T05:41:13.590Z,19.65
2023-04-30T05:43:40.590Z,20.42
2023-04-30T05:46:10.910Z,18.92
2023-04-30T05:48:39.118Z,20.02
2023-04-30T05:51:06.859Z,18.60
2023-04-30T05:53:33.874Z,20.67
2023-04-30T05:56:01.022Z,21.25
2023-04-30T05:58:27.963Z,20.77
2023-04-30T06:00:54.966Z,21.38
2023-04-30T06:03:22.397Z,20.80
2023-04-30T06:05:49.895Z,22.15
2023-04-30T06:08:17.147Z,22.65
2023-04-30T06:10:44.682Z,21.48
2023-04-30T06:13:16.110Z,22.25
2023-04-30T06:15:43.233Z,20.90
2023-04-30T06:18:10.479Z,21.98
2023-04-30T06:20:37.585Z,22.25
2023-04-30T06:23:04.939Z,21.13
2023-04-30T06:25:33.317Z,23.25
2023-04-30T06:28:00.342Z,21.02
2023-04-30T06:30:27.630Z,21.30
2023-04-30T06:32:54.972Z,20.50
2023-04-30T06:35:22.188Z,21.55
2023-04-30T06:37:49.297Z,20.17
2023-04-30T06:40:16.621Z,21.02
2023-04-30T06:42:45.585Z,19.77
2023-04-30T06:45:15.423Z,21.73
2023-04-30T06:47:42.964Z,22.13
2023-04-30T06:50:10.684Z,21.35
2023-04-30T06:52:38.099Z,20.48
2023-04-30T06:55:05.769Z,20.98
2023-04-30T06:57:32.837Z,21.38
2023-04-30T07:00:01.048Z,21.45
2023-04-30T07:02:28.282Z,21.40
2023-04-30T07:04:55.507Z,20.58
2023-04-30T07:07:23.303Z,19.80
2023-04-30T07:09:51.762Z,20.10
2023-04-30T07:12:21.586Z,20.25
2023-04-30T07:14:48.546Z,19.95
2023-04-30T07:17:15.613Z,20.73
2023-04-30T07:19:42.637Z,21.38
2023-04-30T07:22:10.181Z,21.08
2023-04-30T07:24:40.088Z,21.58
2023-04-30T07:27:07.524Z,21.20
2023-04-30T07:29:35.496Z,19.45
2023-04-30T07:32:04.401Z,19.75
2023-04-30T07:34:31.436Z,20.70
2023-04-30T07:37:01.422Z,20.30
2023-04-30T07:39:30.456Z,21.05
2023-04-30T07:41:57.422Z,20.98
2023-04-30T07:44:24.422Z,21.15
2023-04-30T07:46:51.782Z,21.38
2023-04-30T07:49:18.788Z,21.90
2023-04-30T07:51:46.331Z,19.40
2023-04-30T07:54:13.498Z,19.88
2023-04-30T07:56:43.494Z,20.55
2023-04-30T07:59:10.717Z,20.63
2023-04-30T08:01:38.009Z,18.38
2023-04-30T08:04:05.378Z,21.00
2023-04-30T08:06:32.430Z,19.42
2023-04-30T08:09:00.878Z,19.17
2023-04-30T08:11:29.647Z,19.35
2023-04-30T08:13:58.045Z,19.23
2023-04-30T08:16:25.027Z,19.30
2023-04-30T08:18:51.935Z,20.05
2023-04-30T08:21:20.125Z,19.48
2023-04-30T08:23:47.995Z,18.25
2023-04-30T08:26:14.933Z,18.27
2023-04-30T08:28:43.431Z,18.25
2023-04-30T08:31:12.825Z,16.98
2023-04-30T08:33:41.321Z,19.00
2023-04-30T08:36:08.891Z,18.33
2023-04-30T08:38:37.320Z,16.65
2023-04-30T08:41:14.820Z,17.30
2023-04-30T08:43:44.323Z,16.48
2023-04-30T08:48:41.625Z,14.02
2023-04-30T08:51:09.115Z,13.50
2023-04-30T08:53:38.585Z,12.88
2023-04-30T08:56:07.280Z,12.40
2023-04-30T08:58:35.041Z,13.95
2023-04-30T09:01:02.848Z,13.48
2023-04-30T09:03:31.965Z,11.88
2023-04-30T09:05:59.577Z,11.88
2023-04-30T09:08:46.965Z,12.35
2023-04-30T09:11:29.176Z,11.13
2023-04-30T09:13:59.983Z,11.15
2023-04-30T09:16:45.204Z,10.75
2023-04-30T09:19:32.852Z,12.02
2023-04-30T09:21:59.852Z,10.77
2023-04-30T09:24:26.933Z,11.13
2023-04-30T09:26:54.458Z,11.85
2023-04-30T09:29:24.013Z,10.57
2023-04-30T09:31:51.271Z,10.63
2023-04-30T09:34:18.568Z,9.80
2023-04-30T09:37:04.465Z,9.88
2023-04-30T09:39:31.468Z,8.07
2023-04-30T09:42:11.150Z,7.85
2023-04-30T09:44:40.061Z,6.63
2023-04-30T09:47:15.959Z,7.03
2023-04-30T09:49:44.872Z,7.20
2023-04-30T09:52:12.731Z,7.50
2023-04-30T09:54:41.280Z,6.78
2023-04-30T09:57:12.319Z,7.65
2023-04-30T09:59:46.461Z,7.03
2023-04-30T10:02:19.767Z,8.35
2023-04-30T10:04:54.209Z,7.40
2023-04-30T10:07:23.239Z,6.65
2023-04-30T10:10:10.667Z,5.22
2023-04-30T10:12:50.850Z,6.07
2023-04-30T10:15:24.557Z,5.53
2023-04-30T10:18:04.067Z,4.63
2023-04-30T10:20:35.103Z,3.88
2023-04-30T10:23:05.939Z,4.22
2023-04-30T10:25:34.880Z,4.60
2023-04-30T10:28:04.784Z,5.00
2023-04-30T10:30:32.946Z,4.03
2023-04-30T10:33:19.020Z,4.40
2023-04-30T10:36:05.241Z,4.55
2023-04-30T10:38:34.776Z,5.30
2023-04-30T10:41:02.792Z,4.88
2023-04-30T10:43:33.264Z,3.72
2023-04-30T10:46:01.178Z,3.95
2023-04-30T10:48:31.804Z,5.05
2023-04-30T10:51:02.405Z,4.15
2023-04-30T10:53:33.860Z,2.50
2023-04-30T10:56:09.645Z,3.45
2023-04-30T10:58:41.153Z,4.13
2023-04-30T11:01:17.760Z,3.78
2023-04-30T11:04:14.365Z,4.10
2023-04-30T11:07:15.509Z,3.88
2023-04-30T11:09:45.648Z,2.97
2023-04-30T11:12:29.102Z,2.88
2023-04-30T11:15:20.649Z,3.17
2023-04-30T11:17:51.485Z,3.17
2023-04-30T11:20:25.805Z,2.55
2023-04-30T11:23:25.194Z,3.58
2023-04-30T11:26:01.946Z,3.58
2023-04-30T11:28:31.392Z,3.05
2023-04-30T11:31:01.242Z,2.33
2023-04-30T11:33:34.774Z,2.03
2023-04-30T11:36:02.888Z,2.10
2023-04-30T11:38:35.562Z,2.40
2023-04-30T11:41:03.935Z,3.30
2023-04-30T11:43:33.467Z,4.38
2023-04-30T11:46:12.319Z,3.40
2023-04-30T11:48:42.689Z,3.03
2023-04-30T11:51:20.942Z,3.08
2023-04-30T11:53:52.625Z,1.75
2023-04-30T11:56:25.790Z,1.40
2023-04-30T11:58:54.105Z,2.22
2023-04-30T12:01:21.760Z,2.88
2023-04-30T12:03:50.588Z,2.53
2023-04-30T12:06:26.602Z,2.35
2023-04-30T12:08:57.944Z,3.20
2023-04-30T12:11:30.078Z,2.10
2023-04-30T12:14:11.086Z,2.58
2023-04-30T12:16:52.411Z,3.55
2023-04-30T12:19:21.661Z,2.87
2023-04-30T12:21:50.437Z,2.80
2023-04-30T12:24:19.637Z,2.20
2023-04-30T12:26:48.910Z,2.17
2023-04-30T12:29:19.239Z,1.95
2023-04-30T12:31:49.820Z,2.65
2023-04-30T12:34:20.449Z,1.63
2023-04-30T12:36:52.366Z,1.83
2023-04-30T12:39:19.504Z,2.00
2023-04-30T12:41:48.828Z,2.30
2023-04-30T12:44:16.494Z,1.77
2023-04-30T12:46:43.926Z,1.83
2023-04-30T12:49:12.703Z,1.83
2023-04-30T12:51:43.239Z,2.10
2023-04-30T12:54:10.752Z,1.90
2023-04-30T12:56:39.164Z,1.83
2023-04-30T12:59:16.890Z,1.92
2023-04-30T13:01:47.454Z,2.00
2023-04-30T13:04:17.397Z,1.80
2023-04-30T13:06:44.960Z,1.98
2023-04-30T13:09:13.682Z,1.52
2023-04-30T13:11:40.846Z,2.22
2023-04-30T13:14:12.757Z,1.90
2023-04-30T13:16:41.056Z,1.42
2023-04-30T13:19:11.219Z,1.88
2023-04-30T13:21:39.774Z,2.35
2023-04-30T13:24:07.098Z,2.03
2023-04-30T13:26:34.321Z,1.85
2023-04-30T13:29:01.946Z,1.77
2023-04-30T13:31:32.886Z,1.50
2023-04-30T13:34:03.049Z,1.70
2023-04-30T13:36:33.054Z,2.25
2023-04-30T13:39:00.596Z,1.80
2023-04-30T13:41:29.050Z,1.88
2023-04-30T13:43:57.181Z,1.45
2023-04-30T13:46:26.462Z,2.35
2023-04-30T13:48:56.016Z,2.15
2023-04-30T13:51:28.009Z,1.88
2023-04-30T13:56:22.412Z,2.05
2023-04-30T13:58:49.784Z,1.85
2023-04-30T14:01:17.452Z,1.73
2023-04-30T14:03:44.834Z,2.40
2023-04-30T14:06:11.929Z,2.33
2023-04-30T14:08:39.169Z,1.58
2023-04-30T14:11:06.769Z,1.80
2023-04-30T14:13:34.278Z,2.00
2023-04-30T14:16:04.915Z,1.88
2023-04-30T14:18:32.883Z,1.53
2023-04-30T14:21:02.692Z,1.60
2023-04-30T14:23:30.917Z,1.90
2023-04-30T14:25:59.310Z,1.80
2023-04-30T14:28:27.296Z,2.20
2023-04-30T14:30:54.644Z,1.88
2023-04-30T14:33:26.870Z,1.80
2023-04-30T14:35:55.007Z,1.70
2023-04-30T14:38:22.351Z,2.03
2023-04-30T14:40:49.453Z,1.30
2023-04-30T14:43:16.820Z,1.23
2023-04-30T14:45:46.797Z,1.83
2023-04-30T14:48:14.908Z,1.65
2023-04-30T14:50:42.892Z,1.88
2023-04-30T14:53:11.637Z,1.50
2023-04-30T14:55:44.279Z,1.52
2023-04-30T14:58:15.431Z,1.58
2023-04-30T15:00:43.883Z,1.50
2023-04-30T15:03:11.731Z,1.23
2023-04-30T15:05:39.230Z,1.42
2023-04-30T15:08:07.835Z,1.42
2023-04-30T15:10:35.696Z,1.77
2023-04-30T15:13:06.473Z,2.47
2023-04-30T15:15:33.591Z,2.42
2023-04-30T15:18:01.520Z,1.88
2023-04-30T15:20:28.628Z,1.80
2023-04-30T15:22:55.628Z,1.60
2023-04-30T15:25:24.115Z,1.17
2023-04-30T15:27:54.231Z,1.75
2023-04-30T15:30:23.974Z,1.88
2023-04-30T15:32:51.054Z,1.45
2023-04-30T15:35:19.551Z,1.63
2023-04-30T15:37:47.175Z,1.70
2023-04-30T15:40:15.693Z,1.50
2023-04-30T15:42:45.967Z,1.90
2023-04-30T15:45:13.683Z,1.40
2023-04-30T15:47:41.355Z,1.88
2023-04-30T15:50:09.488Z,1.63
2023-04-30T15:52:40.035Z,1.23
2023-04-30T15:55:09.002Z,1.27
2023-04-30T15:57:36.106Z,1.50
2023-04-30T16:00:05.115Z,2.28
2023-04-30T16:02:38.764Z,2.38
2023-04-30T16:05:06.172Z,2.00
2023-04-30T16:07:33.617Z,81.45
2023-04-30T16:10:05.726Z,3.38
2023-04-30T16:12:34.600Z,2.33
2023-04-30T16:15:08.397Z,2.35
2023-04-30T16:17:38.432Z,1.55
2023-04-30T16:20:06.134Z,1.30
2023-04-30T16:22:34.227Z,1.40
2023-04-30T16:25:01.391Z,1.80
2023-04-30T16:27:30.902Z,1.80
2023-04-30T16:29:58.493Z,1.40
2023-04-30T16:32:27.143Z,1.27
2023-04-30T16:34:59.916Z,1.25
2023-04-30T16:37:28.683Z,1.60
2023-04-30T16:39:56.843Z,1.25
2023-04-30T16:42:24.685Z,1.17
2023-04-30T16:44:51.887Z,1.50
2023-04-30T16:47:19.711Z,1.75
2023-04-30T16:49:47.294Z,1.40
2023-04-30T16:52:15.677Z,1.38
2023-04-30T16:54:44.757Z,1.85
2023-04-30T16:57:13.592Z,1.40
2023-04-30T16:59:40.870Z,1.52
2023-04-30T17:02:08.575Z,1.10
2023-04-30T17:04:36.550Z,0.80
2023-04-30T17:07:03.632Z,1.10
2023-04-30T17:09:32.099Z,1.00
2023-04-30T17:11:59.132Z,1.20
2023-04-30T17:14:26.971Z,1.20
2023-04-30T17:16:57.427Z,1.20
2023-04-30T17:19:26.514Z,1.58
2023-04-30T17:21:53.792Z,1.00
2023-04-30T17:24:21.906Z,0.98
2023-04-30T17:26:50.327Z,1.90
2023-04-30T17:29:18.610Z,1.00
2023-04-30T17:31:47.562Z,1.20
2023-04-30T17:34:16.699Z,1.10
2023-04-30T17:36:44.660Z,1.42
2023-04-30T17:39:15.084Z,0.90
2023-04-30T17:41:42.638Z,0.85
2023-04-30T17:44:10.034Z,1.02
2023-04-30T17:46:38.672Z,0.95
2023-04-30T17:49:07.993Z,1.00
2023-04-30T17:51:35.827Z,0.98
2023-04-30T17:54:04.103Z,1.20
2023-04-30T17:56:34.250Z,1.15
2023-04-30T17:59:02.677Z,1.08
2023-04-30T18:01:30.175Z,1.00
2023-04-30T18:03:59.911Z,1.10
2023-04-30T18:06:28.126Z,1.00
2023-04-30T18:08:56.204Z,1.27
2023-04-30T18:11:23.284Z,1.20
2023-04-30T18:13:50.752Z,1.15
2023-04-30T18:16:17.909Z,1.02
2023-04-30T18:18:45.010Z,1.30
2023-04-30T18:21:12.304Z,1.10
2023-04-30T18:23:39.520Z,1.30
2023-04-30T18:26:07.875Z,0.88
2023-04-30T18:28:34.971Z,1.17
2023-04-30T18:31:02.327Z,1.25
2023-04-30T18:33:29.244Z,1.10
2023-04-30T18:35:57.275Z,1.40
2023-04-30T18:38:24.909Z,1.10
2023-04-30T18:40:56.057Z,1.23
2023-04-30T18:43:26.278Z,1.17
2023-04-30T18:45:54.031Z,1.20
2023-04-30T18:48:25.506Z,1.02
2023-04-30T18:50:53.462Z,1.20
2023-04-30T18:53:20.721Z,1.17
2023-04-30T18:55:52.673Z,1.30
2023-04-30T18:58:22.949Z,1.40
2023-04-30T19:00:50.458Z,1.50
2023-04-30T19:03:20.645Z,1.60
2023-04-30T19:05:48.074Z,1.90
2023-04-30T19:08:17.685Z,2.00
2023-04-30T19:10:49.449Z,2.08
2023-04-30T19:13:18.960Z,1.50
2023-04-30T19:15:48.740Z,1.98
2023-04-30T19:18:18.179Z,2.42
2023-04-30T19:20:57.970Z,2.38
2023-04-30T19:23:25.218Z,2.30
2023-04-30T19:25:56.994Z,2.20
2023-04-30T19:28:24.497Z,2.30
2023-04-30T19:30:57.241Z,1.92
2023-04-30T19:33:25.558Z,2.15
2023-04-30T19:35:57.839Z,1.98
2023-04-30T19:40:53.586Z,2.28
2023-04-30T19:43:22.731Z,1.70
2023-04-30T19:45:58.547Z,2.13
2023-04-30T19:48:27.541Z,1.60
2023-04-30T19:50:55.098Z,1.80
2023-04-30T19:53:26.849Z,1.80
2023-04-30T19:55:54.411Z,1.77
2023-04-30T19:58:22.143Z,1.40
2023-04-30T20:00:49.344Z,1.60
2023-04-30T20:03:17.501Z,1.60
2023-04-30T20:05:45.414Z,1.90
2023-04-30T20:08:13.230Z,1.77
2023-04-30T20:10:41.583Z,1.50
2023-04-30T20:13:09.510Z,1.38
2023-04-30T20:15:37.098Z,1.95
2023-04-30T20:18:08.592Z,1.80
2023-04-30T20:20:35.647Z,1.60
2023-04-30T20:23:13.926Z,1.67
2023-04-30T20:25:49.190Z,1.60
2023-04-30T20:28:18.268Z,1.75
2023-04-30T20:30:47.564Z,1.70
2023-04-30T20:33:16.881Z,1.70
2023-04-30T20:35:48.007Z,2.00
2023-04-30T20:38:19.659Z,1.88
2023-04-30T20:40:48.211Z,1.85
2023-04-30T20:43:17.326Z,1.90
2023-04-30T20:45:45.432Z,2.05
2023-04-30T20:48:18.491Z,2.70
2023-04-30T20:50:46.149Z,2.22
2023-04-30T20:53:15.300Z,2.50
2023-04-30T20:55:42.705Z,2.42
2023-04-30T20:58:11.401Z,2.20
2023-04-30T21:00:39.268Z,2.50
2023-04-30T21:03:08.522Z,2.67
2023-04-30T21:05:35.674Z,2.85
2023-04-30T21:08:02.841Z,2.13
2023-04-30T21:10:36.795Z,2.35
2023-04-30T21:13:05.931Z,2.50
2023-04-30T21:15:36.083Z,2.20
2023-04-30T21:18:03.475Z,2.30
2023-04-30T21:20:31.915Z,2.13
2023-04-30T21:23:02.050Z,2.25
2023-04-30T21:25:31.793Z,2.53
2023-04-30T21:27:58.849Z,2.50
2023-04-30T21:30:26.673Z,2.20
2023-04-30T21:32:59.057Z,2.25
2023-04-30T21:35:27.868Z,2.35
2023-04-30T21:37:55.898Z,2.67
2023-04-30T21:40:23.005Z,2.50
2023-04-30T21:42:52.824Z,2.30
2023-04-30T21:45:20.301Z,2.40
2023-04-30T21:47:49.131Z,2.33
2023-04-30T21:50:17.564Z,2.20
2023-04-30T21:52:44.902Z,2.40
2023-04-30T21:55:12.474Z,2.60
2023-04-30T21:57:39.874Z,2.58
2023-04-30T22:00:08.140Z,2.20
2023-04-30T22:02:36.298Z,2.00
2023-04-30T22:05:04.693Z,2.20
2023-04-30T22:07:32.978Z,2.45
2023-04-30T22:10:00.320Z,2.05
2023-04-30T22:12:28.495Z,2.03
2023-04-30T22:14:57.427Z,2.00
2023-04-30T22:17:25.382Z,2.38
2023-04-30T22:19:52.478Z,2.05
2023-04-30T22:22:19.523Z,1.90
2023-04-30T22:24:46.725Z,2.10
2023-04-30T22:27:14.102Z,2.40
2023-04-30T22:29:42.067Z,2.20
2023-04-30T22:32:10.004Z,2.10
2023-04-30T22:34:40.322Z,2.22
2023-04-30T22:37:10.873Z,2.90
2023-04-30T22:39:39.479Z,2.35
2023-04-30T22:42:07.161Z,2.30
2023-04-30T22:44:34.354Z,2.13
2023-04-30T22:47:02.560Z,2.38
2023-04-30T22:49:31.996Z,2.05
2023-04-30T22:52:04.533Z,2.17
2023-04-30T22:54:31.794Z,2.20
2023-04-30T22:56:59.871Z,2.13
2023-04-30T22:59:26.909Z,1.75
2023-04-30T23:01:54.802Z,2.30
2023-04-30T23:04:26.582Z,1.83
2023-04-30T23:06:59.081Z,1.90
2023-04-30T23:09:26.739Z,2.33
2023-04-30T23:11:53.710Z,2.30
2023-04-30T23:14:29.275Z,2.63
2023-04-30T23:16:58.906Z,2.30
2023-04-30T23:19:26.380Z,3.15
2023-04-30T23:21:55.413Z,2.38
2023-04-30T23:24:22.553Z,2.58
2023-04-30T23:26:49.524Z,2.42
2023-04-30T23:29:18.094Z,2.30
2023-04-30T23:31:46.769Z,2.72
2023-04-30T23:34:13.781Z,2.35
2023-04-30T23:36:42.507Z,2.58
2023-04-30T23:39:12.073Z,2.15
2023-04-30T23:41:39.218Z,1.73
2023-04-30T23:44:06.846Z,2.22
2023-04-30T23:49:16.583Z,2.33
2023-04-30T23:51:45.114Z,1.88
2023-04-30T23:54:13.411Z,1.88
2023-04-30T23:56:40.727Z,1.95
2023-04-30T23:59:08.425Z,1.88
